createdAt,value
2016-06-03T00:00:04.466Z,22.06
2016-06-03T00:01:04.515Z,22.02
2016-06-03T00:02:04.534Z,22.02
2016-06-03T00:03:04.552Z,21.99
2016-06-03T00:04:04.586Z,22
2016-06-03T00:05:04.603Z,22.02
2016-06-03T00:06:04.637Z,22
2016-06-03T00:07:04.656Z,22.06
2016-06-03T00:08:04.690Z,21.99
2016-06-03T00:09:04.724Z,21.98
2016-06-03T00:10:04.758Z,21.95
2016-06-03T00:11:04.760Z,21.96
2016-06-03T00:12:04.795Z,21.93
2016-06-03T00:13:04.828Z,21.92
2016-06-03T00:14:04.847Z,21.92
2016-06-03T00:15:04.881Z,21.95
2016-06-03T00:16:04.899Z,21.88
2016-06-03T00:17:04.949Z,21.89
2016-06-03T00:18:04.967Z,21.8
2016-06-03T00:19:05.002Z,21.83
2016-06-03T00:20:05.020Z,21.89
2016-06-03T00:21:05.052Z,21.8
2016-06-03T00:22:05.088Z,21.82
2016-06-03T00:23:05.105Z,21.83
2016-06-03T00:24:05.124Z,21.77
2016-06-03T00:25:05.345Z,21.88
2016-06-03T00:26:05.176Z,21.88
2016-06-03T00:27:05.210Z,21.77
2016-06-03T00:28:05.243Z,21.77
2016-06-03T00:29:05.263Z,21.8
2016-06-03T00:30:05.296Z,21.8
2016-06-03T00:31:06.783Z,21.64
2016-06-03T00:32:05.349Z,21.69
2016-06-03T00:33:05.382Z,21.7
2016-06-03T00:34:05.401Z,21.7
2016-06-03T00:35:05.278Z,21.69
2016-06-03T00:36:05.453Z,21.69
2016-06-03T00:37:05.487Z,21.72
2016-06-03T00:38:05.520Z,21.73
2016-06-03T00:39:05.539Z,21.73
2016-06-03T00:40:06.417Z,21.61
2016-06-03T00:41:05.592Z,21.73
2016-06-03T00:42:05.829Z,21.69
2016-06-03T00:43:05.644Z,21.67
2016-06-03T00:44:05.677Z,21.58
2016-06-03T00:45:05.711Z,21.62
2016-06-03T00:46:05.730Z,21.66
2016-06-03T00:47:05.763Z,21.61
2016-06-03T00:48:05.798Z,21.64
2016-06-03T00:49:05.816Z,21.62
2016-06-03T00:50:05.850Z,21.6
2016-06-03T00:51:05.883Z,21.6
2016-06-03T00:52:05.902Z,21.55
2016-06-03T00:53:05.936Z,21.55
2016-06-03T00:54:05.954Z,21.58
2016-06-03T00:55:06.051Z,21.55
2016-06-03T00:56:06.007Z,21.58
2016-06-03T00:57:05.885Z,21.48
2016-06-03T00:58:06.060Z,21.6
2016-06-03T00:59:06.093Z,21.48
2016-06-03T01:00:06.111Z,21.55
2016-06-03T01:01:05.989Z,21.54
2016-06-03T01:02:06.179Z,21.51
2016-06-03T01:03:06.198Z,21.5
2016-06-03T01:04:06.231Z,21.51
2016-06-03T01:05:06.265Z,21.43
2016-06-03T01:06:06.284Z,21.39
2016-06-03T01:07:06.318Z,21.48
2016-06-03T01:08:06.352Z,21.42
2016-06-03T01:09:06.370Z,21.42
2016-06-03T01:10:06.404Z,21.5
2016-06-03T01:11:06.422Z,21.45
2016-06-03T01:12:06.440Z,21.46
2016-06-03T01:13:06.474Z,21.45
2016-06-03T01:14:06.508Z,21.37
2016-06-03T01:15:06.542Z,21.45
2016-06-03T01:16:06.561Z,21.4
2016-06-03T01:17:06.578Z,21.33
2016-06-03T01:18:06.613Z,21.32
2016-06-03T01:19:06.647Z,21.42
2016-06-03T01:20:06.665Z,21.36
2016-06-03T01:21:06.699Z,21.32
2016-06-03T01:22:06.717Z,21.37
2016-06-03T01:23:06.752Z,21.37
2016-06-03T01:24:06.785Z,21.37
2016-06-03T01:25:06.663Z,21.43
2016-06-03T01:26:06.838Z,21.43
2016-06-03T01:27:06.855Z,21.36
2016-06-03T01:28:06.890Z,21.36
2016-06-03T01:29:06.923Z,21.39
2016-06-03T01:30:06.942Z,21.36
2016-06-03T01:31:06.976Z,21.37
2016-06-03T01:32:06.994Z,21.35
2016-06-03T01:33:07.028Z,21.29
2016-06-03T01:34:07.062Z,21.37
2016-06-03T01:35:07.081Z,21.29
2016-06-03T01:36:07.114Z,21.35
2016-06-03T01:37:07.132Z,21.3
2016-06-03T01:38:07.167Z,21.35
2016-06-03T01:39:07.184Z,21.32
2016-06-03T01:40:07.282Z,21.3
2016-06-03T01:41:07.237Z,21.3
2016-06-03T01:42:07.270Z,21.3
2016-06-03T01:43:07.289Z,21.3
2016-06-03T01:44:07.323Z,21.29
2016-06-03T01:45:07.358Z,21.29
2016-06-03T01:46:07.375Z,21.25
2016-06-03T01:47:07.409Z,21.2
2016-06-03T01:48:07.428Z,21.24
2016-06-03T01:49:07.477Z,21.24
2016-06-03T01:50:07.480Z,21.24
2016-06-03T01:51:07.514Z,21.21
2016-06-03T01:52:07.548Z,21.22
2016-06-03T01:53:07.583Z,21.22
2016-06-03T01:54:07.599Z,21.24
2016-06-03T01:55:07.665Z,21.2
2016-06-03T01:56:07.668Z,21.22
2016-06-03T01:57:07.686Z,21.21
2016-06-03T01:58:07.704Z,21.14
2016-06-03T01:59:07.723Z,21.2
2016-06-03T02:00:07.757Z,21.2
2016-06-03T02:01:07.807Z,21.17
2016-06-03T02:02:07.809Z,21.24
2016-06-03T02:03:07.860Z,21.18
2016-06-03T02:04:07.877Z,21.12
2016-06-03T02:05:07.895Z,21.2
2016-06-03T02:06:07.914Z,21.14
2016-06-03T02:07:07.948Z,21.17
2016-06-03T02:08:07.965Z,21.17
2016-06-03T02:09:08.016Z,21.14
2016-06-03T02:10:08.800Z,21.09
2016-06-03T02:11:08.053Z,21.09
2016-06-03T02:12:08.086Z,21.12
2016-06-03T02:13:08.120Z,21.17
2016-06-03T02:14:08.139Z,21.14
2016-06-03T02:15:08.157Z,21.03
2016-06-03T02:16:08.191Z,21.05
2016-06-03T02:17:08.225Z,21.06
2016-06-03T02:18:08.242Z,21.03
2016-06-03T02:19:08.277Z,21.02
2016-06-03T02:20:08.311Z,21.03
2016-06-03T02:21:08.329Z,21.05
2016-06-03T02:22:08.394Z,21.05
2016-06-03T02:23:08.381Z,21.03
2016-06-03T02:24:08.415Z,21.02
2016-06-03T02:25:09.543Z,21.05
2016-06-03T02:26:08.452Z,20.97
2016-06-03T02:27:08.501Z,21.03
2016-06-03T02:28:08.519Z,20.96
2016-06-03T02:29:08.554Z,21.02
2016-06-03T02:30:08.572Z,20.97
2016-06-03T02:31:08.607Z,21
2016-06-03T02:32:08.609Z,20.99
2016-06-03T02:33:08.643Z,20.95
2016-06-03T02:34:08.677Z,20.9
2016-06-03T02:35:08.727Z,20.96
2016-06-03T02:36:08.729Z,20.88
2016-06-03T02:37:08.763Z,20.93
2016-06-03T02:38:08.781Z,20.93
2016-06-03T02:39:08.799Z,20.93
2016-06-03T02:40:09.459Z,20.95
2016-06-03T02:41:08.867Z,20.92
2016-06-03T02:42:08.901Z,20.88
2016-06-03T02:43:08.920Z,20.93
2016-06-03T02:44:08.953Z,20.95
2016-06-03T02:45:08.987Z,20.97
2016-06-03T02:46:08.990Z,20.81
2016-06-03T02:47:09.025Z,20.87
2016-06-03T02:48:09.058Z,20.87
2016-06-03T02:49:09.091Z,20.82
2016-06-03T02:50:09.110Z,20.88
2016-06-03T02:51:09.144Z,20.9
2016-06-03T02:52:09.163Z,20.95
2016-06-03T02:53:09.196Z,20.84
2016-06-03T02:54:09.214Z,20.9
2016-06-03T02:55:09.530Z,20.77
2016-06-03T02:56:09.267Z,20.85
2016-06-03T02:57:09.301Z,20.8
2016-06-03T02:58:09.319Z,20.8
2016-06-03T02:59:09.353Z,20.88
2016-06-03T03:00:09.372Z,20.85
2016-06-03T03:01:09.405Z,20.74
2016-06-03T03:02:09.424Z,20.82
2016-06-03T03:03:09.301Z,20.84
2016-06-03T03:04:09.476Z,20.77
2016-06-03T03:05:09.510Z,20.77
2016-06-03T03:06:09.528Z,20.77
2016-06-03T03:07:09.563Z,20.78
2016-06-03T03:08:09.581Z,20.77
2016-06-03T03:09:09.614Z,20.77
2016-06-03T03:10:09.726Z,20.75
2016-06-03T03:11:09.667Z,20.78
2016-06-03T03:12:09.701Z,20.78
2016-06-03T03:13:09.735Z,20.77
2016-06-03T03:14:09.753Z,20.74
2016-06-03T03:15:09.787Z,20.72
2016-06-03T03:16:09.805Z,20.75
2016-06-03T03:17:09.823Z,20.72
2016-06-03T03:18:09.858Z,20.72
2016-06-03T03:19:09.875Z,20.72
2016-06-03T03:20:09.909Z,20.74
2016-06-03T03:21:09.927Z,20.7
2016-06-03T03:22:09.822Z,20.69
2016-06-03T03:23:09.997Z,20.7
2016-06-03T03:24:10.014Z,20.69
2016-06-03T03:25:10.095Z,20.6
2016-06-03T03:26:10.067Z,20.7
2016-06-03T03:27:10.085Z,20.7
2016-06-03T03:28:10.118Z,20.63
2016-06-03T03:29:10.152Z,20.69
2016-06-03T03:30:10.171Z,20.69
2016-06-03T03:31:10.204Z,20.7
2016-06-03T03:32:10.239Z,20.74
2016-06-03T03:33:10.257Z,20.72
2016-06-03T03:34:10.307Z,20.62
2016-06-03T03:35:10.324Z,20.59
2016-06-03T03:36:10.328Z,20.62
2016-06-03T03:37:10.361Z,20.63
2016-06-03T03:38:10.395Z,20.65
2016-06-03T03:39:10.414Z,20.63
2016-06-03T03:40:11.088Z,20.58
2016-06-03T03:41:10.482Z,20.62
2016-06-03T03:42:10.500Z,20.63
2016-06-03T03:43:10.518Z,20.66
2016-06-03T03:44:10.552Z,20.63
2016-06-03T03:45:10.587Z,20.55
2016-06-03T03:46:10.620Z,20.6
2016-06-03T03:47:10.623Z,20.63
2016-06-03T03:48:10.656Z,20.62
2016-06-03T03:49:10.816Z,20.62
2016-06-03T03:50:10.725Z,20.63
2016-06-03T03:51:10.837Z,20.62
2016-06-03T03:52:10.762Z,20.6
2016-06-03T03:53:10.795Z,20.62
2016-06-03T03:54:10.814Z,20.59
2016-06-03T03:55:10.957Z,20.66
2016-06-03T03:56:10.866Z,20.6
2016-06-03T03:57:10.899Z,20.5
2016-06-03T03:58:10.919Z,20.52
2016-06-03T03:59:10.952Z,20.62
2016-06-03T04:00:11.127Z,20.55
2016-06-03T04:01:11.005Z,20.5
2016-06-03T04:02:11.023Z,20.52
2016-06-03T04:03:11.057Z,20.55
2016-06-03T04:04:11.074Z,20.58
2016-06-03T04:05:11.109Z,20.52
2016-06-03T04:06:11.127Z,20.55
2016-06-03T04:07:11.160Z,20.47
2016-06-03T04:08:11.258Z,20.55
2016-06-03T04:09:11.213Z,20.55
2016-06-03T04:10:11.543Z,20.5
2016-06-03T04:11:11.281Z,20.5
2016-06-03T04:12:11.315Z,20.55
2016-06-03T04:13:11.318Z,20.44
2016-06-03T04:14:11.337Z,20.47
2016-06-03T04:15:11.370Z,20.55
2016-06-03T04:16:11.388Z,20.56
2016-06-03T04:17:11.422Z,20.43
2016-06-03T04:18:11.456Z,20.44
2016-06-03T04:19:11.475Z,20.51
2016-06-03T04:20:11.509Z,20.52
2016-06-03T04:21:11.589Z,20.55
2016-06-03T04:22:11.545Z,20.47
2016-06-03T04:23:11.579Z,20.44
2016-06-03T04:24:11.614Z,20.47
2016-06-03T04:25:11.584Z,20.48
2016-06-03T04:26:11.666Z,20.44
2016-06-03T04:27:11.683Z,20.47
2016-06-03T04:28:11.717Z,20.48
2016-06-03T04:29:11.752Z,20.51
2016-06-03T04:30:11.630Z,20.51
2016-06-03T04:31:11.975Z,20.48
2016-06-03T04:32:11.822Z,20.47
2016-06-03T04:33:11.856Z,20.59
2016-06-03T04:34:11.875Z,20.44
2016-06-03T04:35:11.940Z,20.48
2016-06-03T04:36:11.927Z,20.44
2016-06-03T04:37:11.960Z,20.47
2016-06-03T04:38:11.979Z,20.5
2016-06-03T04:39:11.856Z,20.51
2016-06-03T04:40:11.938Z,20.59
2016-06-03T04:41:12.065Z,20.59
2016-06-03T04:42:12.099Z,20.52
2016-06-03T04:43:12.117Z,20.5
2016-06-03T04:44:12.135Z,20.52
2016-06-03T04:45:12.154Z,20.47
2016-06-03T04:46:12.203Z,20.41
2016-06-03T04:47:12.223Z,20.52
2016-06-03T04:48:12.240Z,20.55
2016-06-03T04:49:12.273Z,20.55
2016-06-03T04:50:12.136Z,20.55
2016-06-03T04:51:12.326Z,20.51
2016-06-03T04:52:12.345Z,20.52
2016-06-03T04:53:12.378Z,20.56
2016-06-03T04:54:12.412Z,20.52
2016-06-03T04:55:12.478Z,20.51
2016-06-03T04:56:12.450Z,20.56
2016-06-03T04:57:12.483Z,20.52
2016-06-03T04:58:12.502Z,20.51
2016-06-03T04:59:12.536Z,20.47
2016-06-03T05:00:12.569Z,20.6
2016-06-03T05:01:12.587Z,20.51
2016-06-03T05:02:12.606Z,20.55
2016-06-03T05:03:12.640Z,20.62
2016-06-03T05:04:12.674Z,20.66
2016-06-03T05:05:12.691Z,20.63
2016-06-03T05:06:12.710Z,20.66
2016-06-03T05:07:12.744Z,20.65
2016-06-03T05:08:12.779Z,20.63
2016-06-03T05:09:12.796Z,20.62
2016-06-03T05:10:12.846Z,20.6
2016-06-03T05:11:12.849Z,20.62
2016-06-03T05:12:12.883Z,20.58
2016-06-03T05:13:12.917Z,20.6
2016-06-03T05:14:12.935Z,20.77
2016-06-03T05:15:12.969Z,20.7
2016-06-03T05:16:12.971Z,20.72
2016-06-03T05:17:13.005Z,20.74
2016-06-03T05:18:13.055Z,20.78
2016-06-03T05:19:13.073Z,20.84
2016-06-03T05:20:13.092Z,20.84
2016-06-03T05:21:13.109Z,20.85
2016-06-03T05:22:13.269Z,20.84
2016-06-03T05:23:13.287Z,20.87
2016-06-03T05:24:16.275Z,20.82
2016-06-03T05:25:13.433Z,20.87
2016-06-03T05:26:13.342Z,20.9
2016-06-03T05:27:13.283Z,20.92
2016-06-03T05:28:13.348Z,20.85
2016-06-03T05:29:13.335Z,20.96
2016-06-03T05:30:13.353Z,20.92
2016-06-03T05:31:13.387Z,20.92
2016-06-03T05:32:13.406Z,20.93
2016-06-03T05:33:13.438Z,21
2016-06-03T05:34:13.457Z,20.96
2016-06-03T05:35:13.522Z,21.06
2016-06-03T05:36:13.525Z,21.03
2016-06-03T05:37:13.543Z,21.05
2016-06-03T05:38:13.562Z,20.99
2016-06-03T05:39:13.596Z,21.02
2016-06-03T05:40:13.661Z,21
2016-06-03T05:41:13.648Z,21.05
2016-06-03T05:42:13.666Z,21.07
2016-06-03T05:43:13.716Z,21.14
2016-06-03T05:44:13.735Z,21.15
2016-06-03T05:45:13.753Z,21.18
2016-06-03T05:46:13.787Z,21.24
2016-06-03T05:47:13.805Z,21.2
2016-06-03T05:48:13.840Z,21.18
2016-06-03T05:49:13.889Z,21.22
2016-06-03T05:50:13.876Z,21.25
2016-06-03T05:51:13.910Z,21.21
2016-06-03T05:52:13.943Z,21.27
2016-06-03T05:53:13.961Z,21.27
2016-06-03T05:54:13.995Z,21.29
2016-06-03T05:55:14.467Z,21.32
2016-06-03T05:56:14.047Z,21.37
2016-06-03T05:57:14.066Z,21.29
2016-06-03T05:58:13.944Z,21.33
2016-06-03T05:59:14.259Z,21.37
2016-06-03T06:00:14.152Z,21.36
2016-06-03T06:01:14.280Z,21.36
2016-06-03T06:02:14.205Z,21.43
2016-06-03T06:03:14.239Z,21.43
2016-06-03T06:04:14.319Z,21.37
2016-06-03T06:05:14.291Z,21.5
2016-06-03T06:06:14.325Z,21.5
2016-06-03T06:07:14.344Z,21.55
2016-06-03T06:08:14.205Z,21.57
2016-06-03T06:09:14.396Z,21.54
2016-06-03T06:10:14.601Z,21.62
2016-06-03T06:11:14.449Z,21.61
2016-06-03T06:12:14.325Z,21.62
2016-06-03T06:13:14.499Z,21.64
2016-06-03T06:14:14.534Z,21.69
2016-06-03T06:15:14.552Z,21.7
2016-06-03T06:16:14.492Z,21.67
2016-06-03T06:17:14.635Z,21.77
2016-06-03T06:18:14.513Z,21.8
2016-06-03T06:19:14.657Z,21.85
2016-06-03T06:20:14.675Z,21.85
2016-06-03T06:21:14.584Z,21.82
2016-06-03T06:22:14.743Z,21.89
2016-06-03T06:23:14.871Z,21.92
2016-06-03T06:24:14.873Z,21.91
2016-06-03T06:25:14.892Z,22
2016-06-03T06:26:14.910Z,22.02
2016-06-03T06:27:14.960Z,21.99
2016-06-03T06:28:14.977Z,22.04
2016-06-03T06:29:14.996Z,22
2016-06-03T06:30:15.186Z,22.08
2016-06-03T06:31:15.002Z,22.1
2016-06-03T06:32:14.863Z,22.11
2016-06-03T06:33:15.147Z,22.22
2016-06-03T06:34:15.088Z,22.22
2016-06-03T06:35:14.934Z,22.25
2016-06-03T06:36:15.218Z,22.28
2016-06-03T06:37:15.236Z,22.35
2016-06-03T06:38:15.271Z,22.36
2016-06-03T06:39:15.288Z,22.38
2016-06-03T06:40:15.823Z,22.32
2016-06-03T06:41:15.310Z,22.43
2016-06-03T06:42:15.296Z,22.41
2016-06-03T06:43:15.377Z,22.5
2016-06-03T06:44:15.380Z,22.53
2016-06-03T06:45:15.367Z,22.53
2016-06-03T06:46:15.385Z,22.54
2016-06-03T06:47:15.459Z,22.45
2016-06-03T06:48:15.520Z,22.45
2016-06-03T06:49:15.566Z,22.48
2016-06-03T06:50:15.690Z,22.53
2016-06-03T06:51:15.673Z,22.6
2016-06-03T06:52:15.704Z,22.65
2016-06-03T06:53:15.747Z,22.63
2016-06-03T06:54:15.774Z,22.62
2016-06-03T06:55:15.851Z,22.69
2016-06-03T06:56:15.942Z,22.75
2016-06-03T06:57:15.995Z,22.78
2016-06-03T06:58:15.954Z,22.78
2016-06-03T06:59:15.944Z,22.76
2016-06-03T07:00:15.983Z,22.83
2016-06-03T07:01:16.004Z,22.87
2016-06-03T07:02:16.055Z,22.98
2016-06-03T07:03:16.059Z,22.96
2016-06-03T07:04:16.125Z,23
2016-06-03T07:05:16.113Z,23.1
2016-06-03T07:06:16.148Z,23.17
2016-06-03T07:07:16.245Z,23.1
2016-06-03T07:08:16.265Z,23.25
2016-06-03T07:09:16.253Z,23.24
2016-06-03T07:10:16.428Z,23.25
2016-06-03T07:11:16.432Z,23.24
2016-06-03T07:12:16.309Z,23.41
2016-06-03T07:13:16.359Z,23.44
2016-06-03T07:14:16.377Z,23.54
2016-06-03T07:15:16.411Z,23.55
2016-06-03T07:16:16.429Z,23.59
2016-06-03T07:17:16.463Z,23.62
2016-06-03T07:18:16.481Z,23.63
2016-06-03T07:19:16.515Z,23.71
2016-06-03T07:20:16.533Z,23.76
2016-06-03T07:21:16.567Z,23.78
2016-06-03T07:22:16.602Z,23.8
2016-06-03T07:23:16.636Z,23.92
2016-06-03T07:24:16.653Z,23.96
2016-06-03T07:25:17.345Z,24.01
2016-06-03T07:26:16.706Z,24.11
2016-06-03T07:27:16.584Z,24.02
2016-06-03T07:28:16.789Z,24.17
2016-06-03T07:29:16.792Z,24.23
2016-06-03T07:30:16.827Z,24.23
2016-06-03T07:31:16.861Z,24.3
2016-06-03T07:32:16.894Z,24.35
2016-06-03T07:33:16.913Z,24.39
2016-06-03T07:34:16.946Z,24.48
2016-06-03T07:35:16.965Z,24.54
2016-06-03T07:36:16.999Z,24.5
2016-06-03T07:37:17.018Z,24.54
2016-06-03T07:38:17.051Z,24.55
2016-06-03T07:39:17.085Z,24.6
2016-06-03T07:40:17.260Z,24.63
2016-06-03T07:41:17.138Z,24.68
2016-06-03T07:42:17.218Z,24.77
2016-06-03T07:43:17.220Z,24.74
2016-06-03T07:44:17.239Z,24.81
2016-06-03T07:45:17.367Z,24.8
2016-06-03T07:46:17.370Z,24.85
2016-06-03T07:47:17.403Z,24.85
2016-06-03T07:48:17.422Z,24.84
2016-06-03T07:49:17.425Z,24.98
2016-06-03T07:50:17.427Z,25.01
2016-06-03T07:51:17.445Z,25.04
2016-06-03T07:52:17.448Z,25.11
2016-06-03T07:53:17.560Z,25.13
2016-06-03T07:54:17.453Z,25.25
2016-06-03T07:55:18.784Z,25.28
2016-06-03T07:56:17.412Z,25.31
2016-06-03T07:57:17.586Z,25.36
2016-06-03T07:58:17.636Z,25.36
2016-06-03T07:59:17.654Z,25.46
2016-06-03T08:00:17.672Z,25.46
2016-06-03T08:01:17.707Z,25.59
2016-06-03T08:02:17.740Z,25.54
2016-06-03T08:03:17.775Z,25.55
2016-06-03T08:04:17.808Z,25.6
2016-06-03T08:05:17.921Z,25.51
2016-06-03T08:06:17.923Z,25.6
2016-06-03T08:07:17.254Z,25.6
2016-06-03T08:08:18.069Z,25.72
2016-06-03T08:09:18.087Z,25.68
2016-06-03T08:10:18.965Z,25.81
2016-06-03T08:11:18.093Z,25.84
2016-06-03T08:12:18.096Z,25.77
2016-06-03T08:13:18.254Z,25.83
2016-06-03T08:14:18.273Z,25.95
2016-06-03T08:15:18.260Z,25.9
2016-06-03T08:16:18.262Z,25.98
2016-06-03T08:17:18.281Z,25.98
2016-06-03T08:18:18.284Z,25.96
2016-06-03T08:19:18.286Z,26
2016-06-03T08:20:18.351Z,26.05
2016-06-03T08:21:18.292Z,26.06
2016-06-03T08:22:18.325Z,26.1
2016-06-03T08:23:18.344Z,26.16
2016-06-03T08:24:18.394Z,26.18
2016-06-03T08:25:18.975Z,26.22
2016-06-03T08:26:18.445Z,26.13
2016-06-03T08:27:18.480Z,26.25
2016-06-03T08:28:18.530Z,26.23
2016-06-03T08:29:18.532Z,26.28
2016-06-03T08:30:18.566Z,26.31
2016-06-03T08:31:18.584Z,26.36
2016-06-03T08:32:18.618Z,26.38
2016-06-03T08:33:18.652Z,26.41
2016-06-03T08:34:18.685Z,26.51
2016-06-03T08:35:18.549Z,26.55
2016-06-03T08:36:18.738Z,26.63
2016-06-03T08:37:18.772Z,26.58
2016-06-03T08:38:18.791Z,26.63
2016-06-03T08:39:18.840Z,26.65
2016-06-03T08:40:18.718Z,26.66
2016-06-03T08:41:18.892Z,26.77
2016-06-03T08:42:18.926Z,26.71
2016-06-03T08:43:18.960Z,26.81
2016-06-03T08:44:18.978Z,26.73
2016-06-03T08:45:19.029Z,26.83
2016-06-03T08:46:19.046Z,26.83
2016-06-03T08:47:19.080Z,26.9
2016-06-03T08:48:19.193Z,26.93
2016-06-03T08:49:19.226Z,26.99
2016-06-03T08:50:19.167Z,27
2016-06-03T08:51:19.076Z,26.99
2016-06-03T08:52:19.250Z,27.03
2016-06-03T08:53:19.314Z,26.99
2016-06-03T08:54:19.162Z,26.97
2016-06-03T08:55:19.320Z,27.07
2016-06-03T08:56:19.433Z,27.03
2016-06-03T08:57:19.451Z,27.14
2016-06-03T08:58:19.485Z,27.11
2016-06-03T08:59:19.206Z,27.07
2016-06-03T09:00:19.506Z,27.14
2016-06-03T09:01:19.524Z,27.2
2016-06-03T09:02:19.527Z,27.2
2016-06-03T09:03:19.561Z,27.22
2016-06-03T09:04:19.595Z,27.21
2016-06-03T09:05:19.630Z,27.2
2016-06-03T09:06:19.647Z,27.25
2016-06-03T09:07:19.680Z,27.26
2016-06-03T09:08:19.730Z,27.26
2016-06-03T09:09:19.733Z,27.3
2016-06-03T09:10:20.736Z,27.27
2016-06-03T09:11:19.863Z,27.33
2016-06-03T09:12:19.898Z,27.37
2016-06-03T09:13:20.057Z,27.4
2016-06-03T09:14:20.075Z,27.27
2016-06-03T09:15:20.109Z,27.47
2016-06-03T09:16:20.096Z,27.44
2016-06-03T09:17:20.115Z,27.47
2016-06-03T09:18:20.102Z,27.52
2016-06-03T09:19:20.151Z,27.49
2016-06-03T09:20:20.170Z,27.48
2016-06-03T09:21:20.172Z,27.49
2016-06-03T09:22:20.237Z,27.47
2016-06-03T09:23:20.240Z,27.52
2016-06-03T09:24:20.290Z,27.52
2016-06-03T09:25:21.136Z,27.54
2016-06-03T09:26:20.294Z,27.55
2016-06-03T09:27:20.298Z,27.58
2016-06-03T09:28:20.331Z,27.58
2016-06-03T09:29:20.364Z,27.6
2016-06-03T09:30:20.400Z,27.59
2016-06-03T09:31:20.433Z,27.63
2016-06-03T09:32:20.451Z,27.59
2016-06-03T09:33:20.516Z,27.59
2016-06-03T09:34:20.504Z,27.67
2016-06-03T09:35:20.538Z,27.65
2016-06-03T09:36:20.572Z,27.64
2016-06-03T09:37:20.621Z,27.7
2016-06-03T09:38:20.639Z,27.68
2016-06-03T09:39:20.674Z,27.67
2016-06-03T09:40:20.566Z,27.67
2016-06-03T09:41:20.726Z,27.78
2016-06-03T09:42:20.619Z,27.75
2016-06-03T09:43:20.794Z,27.85
2016-06-03T09:44:20.828Z,27.9
2016-06-03T09:45:20.705Z,27.89
2016-06-03T09:46:20.895Z,27.92
2016-06-03T09:47:20.930Z,27.96
2016-06-03T09:48:20.947Z,27.98
2016-06-03T09:49:20.982Z,28.02
2016-06-03T09:50:21.015Z,28.02
2016-06-03T09:51:21.049Z,28.11
2016-06-03T09:52:21.084Z,28.05
2016-06-03T09:53:21.101Z,28.08
2016-06-03T09:54:21.136Z,28.1
2016-06-03T09:55:21.607Z,28.08
2016-06-03T09:56:21.203Z,28.2
2016-06-03T09:57:21.237Z,28.23
2016-06-03T09:58:21.271Z,28.23
2016-06-03T09:59:21.289Z,28.2
2016-06-03T10:00:21.324Z,28.32
2016-06-03T10:01:21.358Z,28.37
2016-06-03T10:02:21.392Z,28.35
2016-06-03T10:03:21.425Z,28.35
2016-06-03T10:04:21.459Z,28.42
2016-06-03T10:05:21.493Z,28.39
2016-06-03T10:06:21.528Z,28.49
2016-06-03T10:07:21.546Z,28.62
2016-06-03T10:08:21.579Z,28.52
2016-06-03T10:09:21.614Z,28.62
2016-06-03T10:10:22.507Z,28.69
2016-06-03T10:11:21.666Z,28.69
2016-06-03T10:12:21.716Z,28.72
2016-06-03T10:13:21.733Z,28.82
2016-06-03T10:14:21.768Z,28.84
2016-06-03T10:15:21.660Z,28.86
2016-06-03T10:16:21.835Z,28.75
2016-06-03T10:17:21.869Z,28.82
2016-06-03T10:18:21.904Z,28.89
2016-06-03T10:19:21.921Z,28.93
2016-06-03T10:20:21.971Z,28.96
2016-06-03T10:21:21.990Z,28.96
2016-06-03T10:22:22.023Z,28.97
2016-06-03T10:23:22.057Z,28.97
2016-06-03T10:24:22.091Z,28.96
2016-06-03T10:25:22.156Z,29.05
2016-06-03T10:26:22.176Z,29.02
2016-06-03T10:27:22.193Z,29.05
2016-06-03T10:28:22.212Z,29.07
2016-06-03T10:29:22.261Z,29.08
2016-06-03T10:30:22.279Z,29.05
2016-06-03T10:31:22.314Z,28.98
2016-06-03T10:32:22.347Z,29.01
2016-06-03T10:33:22.381Z,29.1
2016-06-03T10:34:22.414Z,28.98
2016-06-03T10:35:22.308Z,29.1
2016-06-03T10:36:22.483Z,29.1
2016-06-03T10:37:22.516Z,29.17
2016-06-03T10:38:22.551Z,29.16
2016-06-03T10:39:22.569Z,29.13
2016-06-03T10:40:23.791Z,29.2
2016-06-03T10:41:22.652Z,29.12
2016-06-03T10:42:22.671Z,29.14
2016-06-03T10:43:22.705Z,29.2
2016-06-03T10:44:22.738Z,29.27
2016-06-03T10:45:22.773Z,29.29
2016-06-03T10:46:22.807Z,29.34
2016-06-03T10:47:22.841Z,29.35
2016-06-03T10:48:22.874Z,29.36
2016-06-03T10:49:22.893Z,29.49
2016-06-03T10:50:22.927Z,29.41
2016-06-03T10:51:22.961Z,29.53
2016-06-03T10:52:22.838Z,29.56
2016-06-03T10:53:23.028Z,29.56
2016-06-03T10:54:23.063Z,29.72
2016-06-03T10:55:23.565Z,29.69
2016-06-03T10:56:23.443Z,29.79
2016-06-03T10:57:23.165Z,29.88
2016-06-03T10:58:23.183Z,29.91
2016-06-03T10:59:23.061Z,30.03
2016-06-03T11:00:23.250Z,29.98
2016-06-03T11:01:23.284Z,30.05
2016-06-03T11:02:23.334Z,30.12
2016-06-03T11:03:23.368Z,30.15
2016-06-03T11:04:23.402Z,30.1
2016-06-03T11:05:23.420Z,30.3
2016-06-03T11:06:23.454Z,30.35
2016-06-03T11:07:23.503Z,30.37
2016-06-03T11:08:23.538Z,30.47
2016-06-03T11:09:23.572Z,30.44
2016-06-03T11:10:24.136Z,30.46
2016-06-03T11:11:23.624Z,30.5
2016-06-03T11:12:23.658Z,30.48
2016-06-03T11:13:23.691Z,30.35
2016-06-03T11:14:23.569Z,30.55
2016-06-03T11:15:23.759Z,30.51
2016-06-03T11:16:23.793Z,30.54
2016-06-03T11:17:23.812Z,30.59
2016-06-03T11:18:23.862Z,30.57
2016-06-03T11:19:23.896Z,30.53
2016-06-03T11:20:23.913Z,30.61
2016-06-03T11:21:24.057Z,30.61
2016-06-03T11:22:24.091Z,30.68
2016-06-03T11:23:24.125Z,30.63
2016-06-03T11:24:24.003Z,30.65
2016-06-03T11:25:24.005Z,30.72
2016-06-03T11:26:24.180Z,30.78
2016-06-03T11:27:24.183Z,30.78
2016-06-03T11:28:24.185Z,30.84
2016-06-03T11:29:24.313Z,30.88
2016-06-03T11:30:24.315Z,30.84
2016-06-03T11:31:24.365Z,30.99
2016-06-03T11:32:24.352Z,31.03
2016-06-03T11:33:24.355Z,31.2
2016-06-03T11:34:24.389Z,31.24
2016-06-03T11:35:24.423Z,31.31
2016-06-03T11:36:24.442Z,31.44
2016-06-03T11:37:24.506Z,31.31
2016-06-03T11:38:24.525Z,31.42
2016-06-03T11:39:24.559Z,31.46
2016-06-03T11:40:24.436Z,31.51
2016-06-03T11:41:24.627Z,31.55
2016-06-03T11:42:24.661Z,31.64
2016-06-03T11:43:24.679Z,31.64
2016-06-03T11:44:24.728Z,31.77
2016-06-03T11:45:24.746Z,31.71
2016-06-03T11:46:24.796Z,31.71
2016-06-03T11:47:24.815Z,31.73
2016-06-03T11:48:24.849Z,31.7
2016-06-03T11:49:24.883Z,31.73
2016-06-03T11:50:24.916Z,31.66
2016-06-03T11:51:24.951Z,31.74
2016-06-03T11:52:24.984Z,31.66
2016-06-03T11:53:25.018Z,31.65
2016-06-03T11:54:25.051Z,31.58
2016-06-03T11:55:25.101Z,31.54
2016-06-03T11:56:25.120Z,31.55
2016-06-03T11:57:25.154Z,31.51
2016-06-03T11:58:25.204Z,31.54
2016-06-03T11:59:25.237Z,31.55
2016-06-03T12:00:25.256Z,31.55
2016-06-03T12:01:25.306Z,31.69
2016-06-03T12:02:25.339Z,31.78
2016-06-03T12:03:25.358Z,31.84
2016-06-03T12:04:25.406Z,31.89
2016-06-03T12:05:25.442Z,32.04
2016-06-03T12:06:25.475Z,32.11
2016-06-03T12:07:25.508Z,32.22
2016-06-03T12:08:25.542Z,32.23
2016-06-03T12:09:25.577Z,32.31
2016-06-03T12:10:27.001Z,32.51
2016-06-03T12:11:26.255Z,32.46
2016-06-03T12:12:25.678Z,32.49
2016-06-03T12:13:25.713Z,32.63
2016-06-03T12:14:25.747Z,32.63
2016-06-03T12:15:25.624Z,32.7
2016-06-03T12:16:25.814Z,32.8
2016-06-03T12:17:25.863Z,32.83
2016-06-03T12:18:25.883Z,32.85
2016-06-03T12:19:25.916Z,32.93
2016-06-03T12:20:26.060Z,32.85
2016-06-03T12:21:26.093Z,32.85
2016-06-03T12:22:26.096Z,32.86
2016-06-03T12:23:26.115Z,32.85
2016-06-03T12:24:26.133Z,32.86
2016-06-03T12:25:26.260Z,32.89
2016-06-03T12:26:26.279Z,32.82
2016-06-03T12:27:26.187Z,32.78
2016-06-03T12:28:26.315Z,32.82
2016-06-03T12:29:26.349Z,32.82
2016-06-03T12:30:26.352Z,32.7
2016-06-03T12:31:26.370Z,32.8
2016-06-03T12:32:26.373Z,32.74
2016-06-03T12:33:26.407Z,32.74
2016-06-03T12:34:26.363Z,32.71
2016-06-03T12:35:26.475Z,32.75
2016-06-03T12:36:26.493Z,32.7
2016-06-03T12:37:26.542Z,32.8
2016-06-03T12:38:26.577Z,32.74
2016-06-03T12:39:26.611Z,32.75
2016-06-03T12:40:26.957Z,32.67
2016-06-03T12:41:26.897Z,32.71
2016-06-03T12:42:26.931Z,32.75
2016-06-03T12:43:26.825Z,32.68
2016-06-03T12:44:26.921Z,32.68
2016-06-03T12:45:26.939Z,32.63
2016-06-03T12:46:26.958Z,32.55
2016-06-03T12:47:26.960Z,32.45
2016-06-03T12:48:27.104Z,32.41
2016-06-03T12:49:27.107Z,32.23
2016-06-03T12:50:27.109Z,32.29
2016-06-03T12:51:27.127Z,32.12
2016-06-03T12:52:27.130Z,32.03
2016-06-03T12:53:27.132Z,32.01
2016-06-03T12:54:27.135Z,31.89
2016-06-03T12:55:27.184Z,31.8
2016-06-03T12:56:27.203Z,31.71